Terminal Aerodrome Forecast
Issued by NWS Goodland, KS

Home | Current Version | Previous Version | Text Only | Print | Product List | Glossary On
Versions: 1 2 3 4 5 6 7 8 9 10 11 12
642
FTUS43 KGLD 221120
TAFGLD
TAF
KGLD 221120Z 2212/2312 28008KT P6SM SCT200
     FM222100 05008KT P6SM VCTS SCT070CB BKN150
     FM230100 VRB06KT P6SM SCT200=

USA.gov is the U.S. government's official web portal to all federal, state and local government web resources and services.